Time;durP1;ratioP1;P1;durP2;ratioP2;P2;SDS_P1;SDS_P2;PMS_P1;PMS_P2;Temp;Humidity;BMP_temperature;BMP_pressure;BME280_temperature;BME280_humidity;BME280_pressure;Samples;Min_cycle;Max_cycle;Signal;HPM_P1;HPM_P2
2023/09/12 00:00:47;;;;;;;43.92;33.75;;;19.90;99.90;;;;;;4987678;28;20045;-91
2023/09/12 00:03:12;;;;;;;42.30;32.67;;;19.80;99.90;;;;;;5003560;28;20451;-93
2023/09/12 00:05:38;;;;;;;44.38;34.53;;;19.90;99.90;;;;;;5003517;28;20038;-94
2023/09/12 00:08:04;;;;;;;41.03;32.17;;;19.80;99.90;;;;;;4990007;28;20095;-93
2023/09/12 00:10:30;;;;;;;42.83;32.50;;;19.80;99.90;;;;;;4983039;28;20045;-93
2023/09/12 00:12:56;;;;;;;43.60;33.83;;;19.80;99.90;;;;;;4986283;28;20061;-95
2023/09/12 00:15:28;;;;;;;;;;;19.80;99.90;;;;;;4985887;28;20188;-93
2023/09/12 00:17:54;;;;;;;40.53;31.52;;;19.70;99.90;;;;;;5000458;28;19964;-94
2023/09/12 00:20:20;;;;;;;44.35;35.05;;;19.70;99.90;;;;;;4983228;28;20478;-93
2023/09/12 00:22:47;;;;;;;47.10;34.78;;;19.80;99.90;;;;;;4984560;28;20044;-94
2023/09/12 00:25:22;;;;;;;43.08;33.55;;;19.80;99.90;;;;;;5004495;28;20582;-94
2023/09/12 00:27:48;;;;;;;44.78;34.20;;;19.80;99.90;;;;;;5003374;28;20045;-94
2023/09/12 00:30:16;;;;;;;48.28;34.45;;;19.70;99.90;;;;;;4998112;28;20029;-93
2023/09/12 00:32:42;;;;;;;41.03;32.53;;;19.80;99.90;;;;;;5009750;28;20103;-93
2023/09/12 00:35:08;;;;;;;46.13;35.33;;;19.80;99.90;;;;;;5044275;28;20054;-94
2023/09/12 00:37:34;;;;;;;45.55;33.58;;;19.80;99.90;;;;;;5018850;28;20052;-92
2023/09/12 00:40:03;;;;;;;45.30;34.97;;;19.70;99.90;;;;;;5009771;28;20079;-93
2023/09/12 00:42:29;;;;;;;44.33;34.38;;;19.70;99.90;;;;;;4986945;28;20045;-93
2023/09/12 00:44:55;;;;;;;42.72;34.50;;;19.60;99.90;;;;;;5006376;28;20041;-92
2023/09/12 00:47:22;;;;;;;42.00;34.15;;;19.60;99.90;;;;;;5019476;28;20038;-83
2023/09/12 00:49:50;;;;;;;47.38;35.40;;;19.60;99.90;;;;;;5000276;28;20063;-93
2023/09/12 00:52:26;;;;;;;44.45;34.63;;;19.60;99.90;;;;;;5006417;28;20072;-94
2023/09/12 00:54:53;;;;;;;45.95;34.90;;;19.60;99.90;;;;;;5019623;28;20033;-94
2023/09/12 00:57:23;;;;;;;44.35;34.95;;;19.60;99.90;;;;;;4999561;28;20046;-93
2023/09/12 00:59:49;;;;;;;44.08;35.55;;;19.50;99.90;;;;;;5009832;28;20034;-94
2023/09/12 01:02:16;;;;;;;44.42;34.15;;;19.50;99.90;;;;;;5026817;28;20052;-92
2023/09/12 01:04:42;;;;;;;45.05;36.50;;;19.50;99.90;;;;;;5021604;28;20037;-93
2023/09/12 01:07:08;;;;;;;45.70;36.47;;;19.50;99.90;;;;;;5017712;28;20049;-93
2023/09/12 01:09:34;;;;;;;45.38;33.58;;;19.50;99.90;;;;;;4997242;28;20387;-94
2023/09/12 01:12:02;;;;;;;47.90;36.53;;;19.50;99.90;;;;;;5018960;28;20053;-92
2023/09/12 01:14:29;;;;;;;46.85;37.22;;;19.60;99.90;;;;;;5016381;28;20152;-94
2023/09/12 01:16:55;;;;;;;52.45;37.17;;;19.50;99.90;;;;;;4997914;28;20053;-93
2023/09/12 01:19:21;;;;;;;48.78;37.97;;;19.50;99.90;;;;;;5014439;28;20107;-92
2023/09/12 01:22:22;;;;;;;48.90;37.45;;;19.50;99.90;;;;;;5013883;28;20180;-93
2023/09/12 01:25:27;;;;;;;47.60;36.92;;;19.50;99.90;;;;;;5010447;28;20124;-92
2023/09/12 01:27:55;;;;;;;50.30;36.40;;;19.40;99.90;;;;;;5015384;28;20513;-93
2023/09/12 01:30:25;;;;;;;45.38;35.47;;;19.40;99.90;;;;;;5017709;28;20029;-93
2023/09/12 01:32:52;;;;;;;53.17;40.13;;;19.30;99.90;;;;;;5011315;28;20033;-92
2023/09/12 01:35:18;;;;;;;45.45;36.65;;;19.30;99.90;;;;;;4996720;28;20312;-92
2023/09/12 01:37:44;;;;;;;51.85;38.03;;;19.20;99.90;;;;;;5013927;28;20034;-92
2023/09/12 01:40:10;;;;;;;47.25;37.03;;;19.20;99.90;;;;;;5010445;28;20038;-90
2023/09/12 01:42:45;;;;;;;56.10;39.22;;;19.20;99.90;;;;;;4992925;28;20390;-90
2023/09/12 01:45:14;;;;;;;55.90;39.10;;;19.10;99.90;;;;;;5008644;28;20037;-90
2023/09/12 01:47:45;;;;;;;54.05;39.72;;;19.10;99.90;;;;;;5010605;28;20489;-91
2023/09/12 01:50:13;;;;;;;54.67;39.47;;;19.10;99.90;;;;;;5007682;28;20498;-91
2023/09/12 01:52:40;;;;;;;54.90;39.25;;;19.10;99.90;;;;;;5010798;28;20110;-91
2023/09/12 01:55:09;;;;;;;59.08;42.83;;;19.10;99.90;;;;;;4995472;28;20034;-91
2023/09/12 01:57:36;;;;;;;59.30;41.30;;;19.10;99.90;;;;;;5025718;28;20048;-90
2023/09/12 02:00:03;;;;;;;55.80;39.70;;;19.20;99.90;;;;;;5024927;28;20045;-91
2023/09/12 02:02:29;;;;;;;62.60;43.28;;;19.20;99.90;;;;;;4987770;28;20168;-91
2023/09/12 02:05:12;;;;;;;65.72;43.70;;;19.20;99.90;;;;;;4991938;28;20080;-91
2023/09/12 02:07:40;;;;;;;59.33;41.05;;;19.20;99.90;;;;;;5004867;28;20038;-91
2023/09/12 02:10:06;;;;;;;60.97;42.13;;;19.20;99.90;;;;;;5010290;28;20037;-91
2023/09/12 02:12:32;;;;;;;70.75;42.47;;;19.20;99.90;;;;;;5008861;28;20037;-90
2023/09/12 02:15:00;;;;;;;68.22;44.67;;;19.20;99.90;;;;;;5010014;28;20041;-91
2023/09/12 02:17:26;;;;;;;73.57;44.42;;;19.20;99.90;;;;;;5009047;28;20381;-90
2023/09/12 02:19:52;;;;;;;71.68;44.85;;;19.20;99.90;;;;;;5008739;28;20132;-91
2023/09/12 02:22:18;;;;;;;76.47;45.22;;;19.20;99.90;;;;;;5017651;28;20476;-92
2023/09/12 02:24:43;;;;;;;76.32;45.67;;;19.20;99.90;;;;;;4997040;28;20569;-90
2023/09/12 02:27:09;;;;;;;65.97;41.70;;;19.20;99.90;;;;;;5011781;28;20068;-91
2023/09/12 02:29:35;;;;;;;85.07;42.42;;;19.20;99.90;;;;;;5012209;28;20516;-91
2023/09/12 02:32:00;;;;;;;69.53;41.17;;;19.20;99.90;;;;;;4992824;28;20045;-91
2023/09/12 02:34:26;;;;;;;63.20;42.05;;;19.20;99.90;;;;;;4978138;28;20049;-90
2023/09/12 02:36:53;;;;;;;110.55;45.00;;;19.20;99.90;;;;;;4990734;28;20029;-90
2023/09/12 02:39:18;;;;;;;61.28;40.58;;;19.20;99.90;;;;;;5000001;28;20045;-81
2023/09/12 02:41:44;;;;;;;69.45;42.78;;;19.20;99.90;;;;;;4990892;28;20037;-81
2023/09/12 02:44:10;;;;;;;58.75;41.30;;;19.10;99.90;;;;;;5005430;28;20076;-81
2023/09/12 02:46:37;;;;;;;63.00;42.00;;;19.20;99.90;;;;;;4999129;28;20084;-81
2023/09/12 02:49:02;;;;;;;75.85;45.08;;;19.20;99.90;;;;;;5029038;28;20045;-91
2023/09/12 02:51:29;;;;;;;62.03;44.10;;;19.20;99.90;;;;;;5021213;28;20188;-81
2023/09/12 02:53:55;;;;;;;60.05;41.88;;;19.10;99.90;;;;;;5029659;28;20041;-90
2023/09/12 02:56:21;;;;;;;69.47;43.65;;;19.20;99.90;;;;;;5000822;28;20113;-91
2023/09/12 02:58:47;;;;;;;93.20;48.25;;;19.10;99.90;;;;;;5033989;28;20042;-89
2023/09/12 03:01:16;;;;;;;71.05;42.70;;;19.10;99.90;;;;;;5033244;28;20049;-81
2023/09/12 03:03:46;;;;;;;61.45;42.42;;;19.10;99.90;;;;;;5029001;28;20492;-81
2023/09/12 03:06:13;;;;;;;72.38;44.05;;;19.00;99.90;;;;;;5016117;28;20397;-90
2023/09/12 03:08:40;;;;;;;60.38;42.20;;;19.00;99.90;;;;;;5032834;28;20084;-90
2023/09/12 03:11:07;;;;;;;62.45;42.38;;;19.00;99.90;;;;;;5033479;28;20040;-90
2023/09/12 03:13:37;;;;;;;72.95;43.35;;;19.00;99.90;;;;;;5010883;28;20061;-90
2023/09/12 03:16:03;;;;;;;60.58;42.75;;;19.00;99.90;;;;;;5025290;28;20037;-90
2023/09/12 03:18:29;;;;;;;59.40;43.40;;;19.00;99.90;;;;;;4996646;28;20048;-91
2023/09/12 03:20:57;;;;;;;61.60;42.75;;;18.90;99.90;;;;;;5011605;28;20037;-90
2023/09/12 03:23:23;;;;;;;57.97;40.80;;;18.90;99.90;;;;;;4995815;28;20045;-90
2023/09/12 03:25:51;;;;;;;62.85;42.20;;;18.90;99.90;;;;;;4995253;28;20045;-90
2023/09/12 03:28:17;;;;;;;60.42;40.85;;;18.80;99.90;;;;;;5025163;28;20041;-90
2023/09/12 03:30:43;;;;;;;70.40;41.53;;;18.80;99.90;;;;;;4995581;28;20041;-90
2023/09/12 03:33:08;;;;;;;65.07;41.63;;;18.80;99.90;;;;;;4979694;28;20037;-90
2023/09/12 03:35:34;;;;;;;58.05;38.50;;;18.80;99.90;;;;;;5010410;28;20080;-90
2023/09/12 03:38:00;;;;;;;122.32;45.13;;;18.80;99.90;;;;;;5011949;28;20391;-90
2023/09/12 03:40:30;;;;;;;64.25;42.22;;;18.80;99.90;;;;;;5011629;28;20041;-81
2023/09/12 03:42:56;;;;;;;238.98;55.53;;;18.70;99.90;;;;;;5010192;28;20037;-81
2023/09/12 03:45:22;;;;;;;82.25;41.13;;;18.70;99.90;;;;;;4994932;28;20037;-90
2023/09/12 03:47:48;;;;;;;51.58;37.90;;;18.70;99.90;;;;;;5009998;28;20081;-90
2023/09/12 03:50:13;;;;;;;54.05;38.92;;;18.70;99.90;;;;;;5022943;28;20038;-90
2023/09/12 03:52:39;;;;;;;59.95;40.88;;;18.70;99.90;;;;;;5006146;28;20076;-89
2023/09/12 03:55:05;;;;;;;98.20;43.30;;;18.70;99.90;;;;;;5011202;28;20040;-89
2023/09/12 03:57:31;;;;;;;130.65;43.90;;;18.70;99.90;;;;;;5024256;28;20107;-90
2023/09/12 03:59:57;;;;;;;59.40;39.03;;;18.60;99.90;;;;;;5013310;28;20041;-89
2023/09/12 04:02:23;;;;;;;92.28;40.13;;;18.70;99.90;;;;;;5012300;28;20041;-89
2023/09/12 04:04:49;;;;;;;62.95;39.45;;;18.70;99.90;;;;;;5009987;28;20324;-89
2023/09/12 04:07:14;;;;;;;110.75;41.75;;;18.60;99.90;;;;;;4979798;28;20072;-90
2023/09/12 04:09:40;;;;;;;62.70;38.15;;;18.60;99.90;;;;;;5014792;28;20092;-89
2023/09/12 04:12:06;;;;;;;127.93;42.78;;;18.60;99.90;;;;;;4991404;28;20055;-89
2023/09/12 04:14:32;;;;;;;46.78;35.00;;;18.50;99.90;;;;;;5023805;28;20034;-89
2023/09/12 04:16:58;;;;;;;63.35;36.58;;;18.50;99.90;;;;;;4994551;28;20478;-89
2023/09/12 04:19:25;;;;;;;75.65;35.38;;;18.50;99.90;;;;;;4991696;28;20037;-89
2023/09/12 04:21:51;;;;;;;53.97;34.25;;;18.40;99.90;;;;;;4995483;28;20077;-89
2023/09/12 04:24:17;;;;;;;84.75;37.42;;;18.40;99.90;;;;;;5024756;28;20182;-81
2023/09/12 04:26:44;;;;;;;193.75;41.53;;;18.40;99.90;;;;;;4991113;28;20038;-81
2023/09/12 04:29:10;;;;;;;100.47;38.95;;;18.40;99.90;;;;;;4995448;28;20034;-81
2023/09/12 04:31:39;;;;;;;306.50;48.63;;;18.40;99.90;;;;;;4990439;28;20121;-81
2023/09/12 04:34:07;;;;;;;86.55;37.65;;;18.40;99.90;;;;;;5007863;28;20071;-81
2023/09/12 04:36:33;;;;;;;92.40;39.75;;;18.40;99.90;;;;;;5027418;28;20037;-81
2023/09/12 04:39:00;;;;;;;57.65;38.00;;;18.30;99.90;;;;;;4994052;28;20595;-81
2023/09/12 04:41:25;;;;;;;82.63;40.42;;;18.40;99.90;;;;;;5010074;28;20055;-81
2023/09/12 04:43:59;;;;;;;107.75;39.90;;;18.40;99.90;;;;;;5010161;28;20095;-89
2023/09/12 04:46:25;;;;;;;160.65;44.53;;;18.40;99.90;;;;;;5007448;28;20050;-89
2023/09/12 04:48:50;;;;;;;146.57;44.72;;;18.40;99.90;;;;;;4995615;28;20079;-89
2023/09/12 04:51:17;;;;;;;105.97;42.60;;;18.40;99.90;;;;;;5008925;28;20038;-89
2023/09/12 04:53:46;;;;;;;132.98;43.90;;;18.40;99.90;;;;;;5007906;28;20038;-89
2023/09/12 04:56:21;;;;;;;109.90;41.88;;;18.40;99.90;;;;;;5012179;28;20533;-89
2023/09/12 04:58:49;;;;;;;75.32;37.75;;;18.40;99.90;;;;;;5014228;28;20034;-89
2023/09/12 05:01:16;;;;;;;78.45;39.33;;;18.30;99.90;;;;;;4992250;28;20053;-81
2023/09/12 05:03:42;;;;;;;78.15;39.75;;;18.40;99.90;;;;;;5040394;28;20041;-81
2023/09/12 05:06:08;;;;;;;72.15;39.50;;;18.30;99.90;;;;;;5022454;28;20037;-88
2023/09/12 05:08:34;;;;;;;65.13;38.00;;;18.30;99.90;;;;;;5010552;28;20159;-89
2023/09/12 05:11:00;;;;;;;77.85;37.35;;;18.40;99.90;;;;;;4988048;28;20069;-81
2023/09/12 05:13:26;;;;;;;84.10;35.53;;;18.40;99.90;;;;;;5005037;28;20473;-82
2023/09/12 05:15:57;;;;;;;79.93;38.55;;;18.30;99.90;;;;;;4991084;28;20099;-89
2023/09/12 05:18:23;;;;;;;83.93;36.30;;;18.40;99.90;;;;;;4992915;28;20045;-81
2023/09/12 05:20:49;;;;;;;66.13;36.40;;;18.30;99.90;;;;;;5008766;28;20048;-80
2023/09/12 05:23:15;;;;;;;83.53;34.50;;;18.30;99.90;;;;;;4992153;28;20045;-90
2023/09/12 05:25:41;;;;;;;77.65;34.30;;;18.30;99.90;;;;;;4997533;28;20116;-89
2023/09/12 05:28:07;;;;;;;117.30;37.20;;;18.30;99.90;;;;;;5009197;28;20755;-88
2023/09/12 05:30:33;;;;;;;168.80;38.03;;;18.20;99.90;;;;;;5008341;28;20076;-88
2023/09/12 05:32:58;;;;;;;241.30;44.75;;;18.20;99.90;;;;;;5010891;28;20100;-89
2023/09/12 05:35:24;;;;;;;202.48;43.13;;;18.10;99.90;;;;;;5003485;28;20107;-81
2023/09/12 05:37:51;;;;;;;166.65;39.92;;;18.10;99.90;;;;;;4994994;28;20447;-90
2023/09/12 05:40:18;;;;;;;193.55;42.75;;;18.10;99.90;;;;;;5024660;28;20038;-90
2023/09/12 05:42:53;;;;;;;103.47;36.53;;;18.10;99.90;;;;;;5025948;28;20084;-90
2023/09/12 05:45:18;;;;;;;107.10;37.25;;;18.10;99.90;;;;;;5010698;28;20048;-89
2023/09/12 05:47:48;;;;;;;153.68;41.22;;;18.10;99.90;;;;;;5012329;28;20389;-90
2023/09/12 05:50:13;;;;;;;111.10;40.95;;;18.10;99.90;;;;;;5007171;28;20041;-89
2023/09/12 05:52:39;;;;;;;201.15;44.97;;;18.10;99.90;;;;;;5025428;28;20037;-89
2023/09/12 05:55:05;;;;;;;85.93;39.63;;;18.10;99.90;;;;;;5023387;28;20045;-90
2023/09/12 05:57:34;;;;;;;112.47;39.53;;;18.10;99.90;;;;;;4993459;28;20124;-90
2023/09/12 06:00:00;;;;;;;109.88;39.45;;;18.10;99.90;;;;;;5024466;28;20045;-89
2023/09/12 06:02:30;;;;;;;80.65;40.53;;;18.20;99.90;;;;;;5011295;28;20067;-91
2023/09/12 06:04:56;;;;;;;112.10;42.50;;;18.20;99.90;;;;;;4977050;28;20044;-89
2023/09/12 06:07:21;;;;;;;91.18;42.42;;;18.20;99.90;;;;;;5003325;28;20409;-90
2023/09/12 06:09:47;;;;;;;87.40;40.83;;;18.20;99.90;;;;;;5014012;28;20069;-90
2023/09/12 06:12:13;;;;;;;245.00;50.58;;;18.20;99.90;;;;;;4998803;28;20041;-89
2023/09/12 06:14:38;;;;;;;214.13;49.88;;;18.30;99.90;;;;;;5015329;28;20147;-90
2023/09/12 06:17:11;;;;;;;90.13;42.90;;;18.30;99.90;;;;;;5012391;28;20041;-90
2023/09/12 06:19:36;;;;;;;132.38;44.20;;;18.30;99.90;;;;;;5006800;28;20037;-90
2023/09/12 06:22:02;;;;;;;90.55;41.80;;;18.30;99.90;;;;;;4991321;28;20049;-89
2023/09/12 06:24:28;;;;;;;70.13;41.17;;;18.40;99.90;;;;;;4992441;28;20156;-90
2023/09/12 06:26:54;;;;;;;82.20;41.28;;;18.40;99.90;;;;;;4997555;28;20045;-90
2023/09/12 06:29:25;;;;;;;92.03;41.90;;;18.40;99.90;;;;;;5007892;28;20429;-80
2023/09/12 06:35:20;;;;;;;69.30;39.75;;;18.50;99.90;;;;;;5020523;28;20059;-91
2023/09/12 06:37:49;;;;;;;91.00;43.80;;;18.40;99.90;;;;;;4999710;28;20081;-89
2023/09/12 06:40:16;;;;;;;78.20;41.90;;;18.50;99.90;;;;;;4995535;28;20048;-90
2023/09/12 06:42:43;;;;;;;85.70;41.60;;;18.50;99.90;;;;;;5015224;28;20467;-81
2023/09/12 06:45:09;;;;;;;68.82;41.00;;;18.50;99.90;;;;;;5019588;28;20381;-81
2023/09/12 06:47:35;;;;;;;86.95;45.30;;;18.60;99.90;;;;;;5021778;28;20073;-81
2023/09/12 06:50:02;;;;;;;69.38;42.25;;;18.60;99.90;;;;;;5005352;28;20065;-81
2023/09/12 06:52:28;;;;;;;74.53;45.42;;;18.60;99.90;;;;;;5021331;28;20041;-81
2023/09/12 06:54:53;;;;;;;70.60;44.00;;;18.60;99.90;;;;;;5007609;28;20037;-81
2023/09/12 06:57:19;;;;;;;79.43;47.17;;;18.60;99.90;;;;;;5009168;28;20045;-81
2023/09/12 06:59:45;;;;;;;68.60;41.45;;;18.70;99.90;;;;;;5007620;28;20041;-81
2023/09/12 07:02:12;;;;;;;67.07;42.60;;;18.80;99.90;;;;;;4975279;28;20747;-81
2023/09/12 07:04:38;;;;;;;70.28;43.42;;;18.80;99.90;;;;;;4990071;28;20045;-81
2023/09/12 07:07:04;;;;;;;70.50;42.78;;;18.80;99.90;;;;;;4990368;28;20053;-80
2023/09/12 07:09:30;;;;;;;67.68;43.05;;;18.80;99.90;;;;;;4992481;28;20073;-81
2023/09/12 07:11:55;;;;;;;67.63;41.80;;;18.90;99.90;;;;;;5025480;28;20057;-81
2023/09/12 07:14:22;;;;;;;74.13;45.13;;;18.90;99.90;;;;;;4992132;28;20092;-81
2023/09/12 07:16:48;;;;;;;68.88;43.35;;;18.90;99.90;;;;;;4993838;28;20138;-80
2023/09/12 07:19:14;;;;;;;67.00;41.03;;;18.90;99.90;;;;;;5009620;28;20061;-80
2023/09/12 07:21:39;;;;;;;70.43;43.20;;;18.90;99.90;;;;;;5031492;28;20064;-81
2023/09/12 07:24:06;;;;;;;67.75;42.17;;;18.90;99.90;;;;;;4986004;28;20033;-81
2023/09/12 07:26:31;;;;;;;71.07;43.92;;;19.00;99.90;;;;;;4988046;28;20099;-81
2023/09/12 07:28:58;;;;;;;68.72;43.67;;;19.00;99.90;;;;;;5023545;28;20080;-81
2023/09/12 07:31:23;;;;;;;68.38;43.20;;;19.00;99.90;;;;;;5005714;28;20489;-81
2023/09/12 07:33:49;;;;;;;70.63;44.58;;;19.00;99.90;;;;;;4973598;28;20049;-80
2023/09/12 07:36:15;;;;;;;76.05;45.70;;;19.00;99.90;;;;;;5007513;28;20274;-81
2023/09/12 07:38:42;;;;;;;73.47;44.85;;;19.00;99.90;;;;;;5002335;28;20072;-80
2023/09/12 07:41:08;;;;;;;73.03;45.20;;;19.00;99.90;;;;;;4990105;28;20098;-81
2023/09/12 07:43:33;;;;;;;76.03;46.25;;;19.00;99.90;;;;;;5025740;28;20037;-81
2023/09/12 07:45:59;;;;;;;76.10;45.35;;;19.10;99.90;;;;;;5004757;28;20053;-81
2023/09/12 07:48:25;;;;;;;69.30;42.55;;;19.10;99.90;;;;;;4974268;28;20371;-81
2023/09/12 07:50:51;;;;;;;72.10;42.88;;;19.20;99.90;;;;;;5014809;28;20033;-82
2023/09/12 07:53:17;;;;;;;69.50;42.00;;;19.20;99.90;;;;;;4999665;28;20045;-81
2023/09/12 07:55:46;;;;;;;66.63;44.15;;;19.30;99.90;;;;;;4992163;28;20060;-80
2023/09/12 07:58:16;;;;;;;65.82;41.78;;;19.30;99.90;;;;;;4997935;28;20041;-81
2023/09/12 08:00:42;;;;;;;69.55;43.30;;;19.30;99.90;;;;;;4999096;28;20064;-81
2023/09/12 08:03:08;;;;;;;70.38;42.97;;;19.30;99.90;;;;;;5014262;28;20052;-81
2023/09/12 08:05:34;;;;;;;67.18;42.95;;;19.30;99.90;;;;;;4996672;28;20370;-81
2023/09/12 08:08:00;;;;;;;63.38;40.85;;;19.40;99.90;;;;;;5014154;28;20120;-81
2023/09/12 08:10:26;;;;;;;69.07;41.85;;;19.40;99.90;;;;;;4979328;28;20119;-81
2023/09/12 08:12:52;;;;;;;70.57;43.78;;;19.60;99.90;;;;;;5012765;28;20065;-81
2023/09/12 08:15:17;;;;;;;64.20;41.72;;;19.70;99.90;;;;;;5014467;28;20034;-81
2023/09/12 08:17:43;;;;;;;67.88;42.47;;;19.70;99.90;;;;;;4998400;28;20885;-81
2023/09/12 08:20:12;;;;;;;68.03;40.80;;;19.80;99.90;;;;;;4998408;28;20156;-81
2023/09/12 08:22:38;;;;;;;65.78;40.40;;;19.70;99.90;;;;;;4997248;28;20128;-81
2023/09/12 08:25:05;;;;;;;67.68;42.13;;;19.80;99.90;;;;;;5015346;28;20034;-81
2023/09/12 08:27:31;;;;;;;67.15;41.47;;;19.80;99.90;;;;;;5028968;28;20048;-81
2023/09/12 08:29:57;;;;;;;64.75;40.97;;;19.80;99.90;;;;;;4996831;28;20033;-81
2023/09/12 08:32:23;;;;;;;63.03;40.88;;;19.90;99.90;;;;;;5006795;28;20042;-82
2023/09/12 08:34:48;;;;;;;65.22;40.78;;;19.90;99.90;;;;;;5030999;28;20052;-82
2023/09/12 08:37:14;;;;;;;62.00;40.15;;;19.90;99.90;;;;;;5029085;28;20109;-82
2023/09/12 08:39:45;;;;;;;60.70;39.63;;;19.90;99.90;;;;;;5027552;28;20037;-81
2023/09/12 08:42:15;;;;;;;64.28;39.50;;;20.00;99.90;;;;;;5011880;28;20068;-82
2023/09/12 08:44:42;;;;;;;57.75;38.70;;;20.00;99.90;;;;;;5013567;28;20053;-81
2023/09/12 08:47:12;;;;;;;62.85;39.33;;;20.00;99.90;;;;;;5013880;28;20033;-81
2023/09/12 08:49:38;;;;;;;56.40;38.45;;;20.00;99.90;;;;;;4990976;28;20037;-80
2023/09/12 08:52:07;;;;;;;56.20;37.53;;;20.00;99.90;;;;;;5031049;28;20034;-82
2023/09/12 08:54:33;;;;;;;54.80;35.33;;;19.90;99.90;;;;;;4996741;28;20069;-82
2023/09/12 08:57:02;;;;;;;57.78;36.38;;;19.90;99.90;;;;;;5031081;28;20045;-81
2023/09/12 08:59:28;;;;;;;50.85;35.35;;;19.90;99.90;;;;;;5013321;28;20037;-81
2023/09/12 09:01:57;;;;;;;53.92;36.30;;;19.90;99.90;;;;;;5014296;28;20048;-82
2023/09/12 09:04:23;;;;;;;51.88;34.78;;;19.90;99.90;;;;;;4988651;28;20050;-82
2023/09/12 09:06:50;;;;;;;52.42;35.33;;;20.00;99.90;;;;;;5010013;28;20048;-81
2023/09/12 09:09:16;;;;;;;54.80;35.38;;;20.00;99.90;;;;;;5003000;28;20101;-81
2023/09/12 09:11:42;;;;;;;53.92;35.47;;;20.00;99.90;;;;;;5008847;28;20034;-81
2023/09/12 09:14:08;;;;;;;51.58;35.00;;;20.00;99.90;;;;;;5011388;28;20477;-81
2023/09/12 09:16:35;;;;;;;49.70;35.35;;;20.00;99.90;;;;;;5007047;28;20083;-81
2023/09/12 09:19:04;;;;;;;53.42;35.47;;;20.10;99.90;;;;;;5011555;28;20409;-82
2023/09/12 09:21:31;;;;;;;52.22;36.08;;;20.10;99.90;;;;;;5010240;28;20080;-81
2023/09/12 09:24:17;;;;;;;48.00;33.45;;;20.10;99.90;;;;;;5012825;28;20539;-81
2023/09/12 09:26:48;;;;;;;50.03;34.00;;;20.10;99.90;;;;;;4996709;28;20041;-81
2023/09/12 09:29:16;;;;;;;51.67;34.38;;;20.10;99.90;;;;;;5013571;28;20048;-81
2023/09/12 09:31:43;;;;;;;47.22;32.25;;;20.20;99.90;;;;;;5012597;28;20037;-81
2023/09/12 09:34:18;;;;;;;46.25;33.67;;;20.20;99.90;;;;;;5038545;28;20056;-88
2023/09/12 09:36:54;;;;;;;49.65;33.90;;;20.20;99.90;;;;;;5038262;28;20034;-87
2023/09/12 09:39:22;;;;;;;48.70;33.97;;;20.20;99.90;;;;;;5031098;28;20045;-89
2023/09/12 09:41:49;;;;;;;53.85;36.33;;;20.20;99.90;;;;;;5031803;28;20094;-88
2023/09/12 09:44:15;;;;;;;53.35;35.70;;;20.20;99.90;;;;;;4998022;28;20048;-88
2023/09/12 09:46:46;;;;;;;51.72;35.95;;;20.30;99.90;;;;;;5006133;28;20041;-89
2023/09/12 09:49:15;;;;;;;50.40;35.25;;;20.30;99.90;;;;;;5009645;28;20073;-88
2023/09/12 09:51:42;;;;;;;54.35;35.55;;;20.40;99.90;;;;;;5001316;28;20413;-87
2023/09/12 09:54:09;;;;;;;49.40;34.50;;;20.50;99.90;;;;;;5001992;28;20042;-90
2023/09/12 09:56:49;;;;;;;51.58;36.13;;;20.50;99.90;;;;;;5025228;28;20404;-88
2023/09/12 09:59:16;;;;;;;52.13;35.95;;;20.60;99.90;;;;;;5006648;28;20080;-89
2023/09/12 10:01:44;;;;;;;52.08;35.15;;;20.60;99.90;;;;;;4991119;28;20050;-89
2023/09/12 10:04:10;;;;;;;51.28;35.60;;;20.60;99.90;;;;;;5014367;28;20409;-87
2023/09/12 10:06:37;;;;;;;50.50;35.75;;;20.70;99.90;;;;;;5026303;28;20042;-89
2023/09/12 10:09:10;;;;;;;49.58;34.55;;;20.70;99.90;;;;;;5023027;28;20033;-88
2023/09/12 10:11:37;;;;;;;47.25;34.03;;;20.70;99.90;;;;;;5027224;28;20036;-88
2023/09/12 10:14:05;;;;;;;49.78;36.75;;;20.90;99.90;;;;;;4994083;28;20138;-88
2023/09/12 10:16:36;;;;;;;50.83;35.85;;;21.00;99.90;;;;;;5026721;28;20608;-87
2023/09/12 10:19:19;;;;;;;51.72;34.85;;;21.00;99.90;;;;;;4998952;28;20034;-87
2023/09/12 10:22:12;;;;;;;48.50;34.38;;;21.20;99.90;;;;;;5004661;28;20080;-87
2023/09/12 10:24:39;;;;;;;45.17;33.10;;;21.20;99.90;;;;;;5030388;28;20052;-87
2023/09/12 10:27:06;;;;;;;47.80;35.22;;;21.20;99.90;;;;;;5011492;28;20091;-87
2023/09/12 10:29:32;;;;;;;48.22;33.92;;;21.30;99.90;;;;;;5014976;28;20075;-88
2023/09/12 10:31:57;;;;;;;46.25;33.60;;;21.40;99.90;;;;;;4996249;28;20040;-87
2023/09/12 10:34:26;;;;;;;45.53;32.13;;;21.60;99.90;;;;;;5010530;28;20050;-89
2023/09/12 10:36:55;;;;;;;40.92;30.08;;;21.70;99.90;;;;;;5013561;28;20159;-87
2023/09/12 10:39:22;;;;;;;50.45;32.97;;;21.80;99.90;;;;;;5012353;28;20042;-88
2023/09/12 10:41:51;;;;;;;43.55;31.85;;;21.80;99.90;;;;;;5013825;28;20060;-88
2023/09/12 10:44:17;;;;;;;43.13;31.70;;;21.80;99.90;;;;;;5027848;28;20048;-89
2023/09/12 10:46:45;;;;;;;38.72;29.45;;;21.80;99.90;;;;;;5027044;28;20393;-88
2023/09/12 10:49:12;;;;;;;35.75;29.02;;;21.70;99.90;;;;;;5009859;28;20445;-87
2023/09/12 10:51:43;;;;;;;38.97;29.40;;;21.70;99.90;;;;;;5028172;28;20138;-87
2023/09/12 10:54:12;;;;;;;34.97;27.58;;;21.70;99.90;;;;;;5023869;28;20164;-87
2023/09/12 10:56:37;;;;;;;38.50;27.38;;;21.80;99.90;;;;;;5010593;28;20142;-90
2023/09/12 10:59:12;;;;;;;35.45;28.05;;;21.90;99.90;;;;;;4995934;28;20545;-88
2023/09/12 11:01:40;;;;;;;38.53;27.60;;;21.90;99.90;;;;;;5019161;28;20042;-90
2023/09/12 11:04:24;;;;;;;38.17;26.95;;;22.00;99.90;;;;;;5013031;28;20045;-88
2023/09/12 11:06:50;;;;;;;37.17;28.10;;;22.00;99.90;;;;;;5013454;28;20045;-90
2023/09/12 11:09:23;;;;;;;37.75;28.55;;;22.10;99.90;;;;;;5009975;28;20133;-88
2023/09/12 11:12:04;;;;;;;35.15;26.98;;;22.10;99.90;;;;;;5026036;28;20045;-90
2023/09/12 11:14:32;;;;;;;35.72;27.45;;;22.10;99.90;;;;;;5026603;28;20037;-90
2023/09/12 11:17:21;;;;;;;32.72;25.45;;;22.20;99.90;;;;;;5016427;28;20033;-90
2023/09/12 11:19:52;;;;;;;36.60;27.65;;;22.30;99.90;;;;;;5010896;28;20045;-90
2023/09/12 11:22:31;;;;;;;35.17;26.33;;;22.40;99.90;;;;;;5026601;28;20045;-87
2023/09/12 11:25:01;;;;;;;31.20;24.85;;;22.50;99.90;;;;;;5016667;28;20041;-84
2023/09/12 11:27:32;;;;;;;36.20;27.73;;;22.60;99.90;;;;;;5035157;28;20053;-89
2023/09/12 11:30:06;;;;;;;34.53;27.42;;;22.70;99.90;;;;;;5016615;28;20056;-91
2023/09/12 11:32:35;;;;;;;36.42;27.40;;;22.90;99.90;;;;;;5008799;28;20042;-88
2023/09/12 11:35:08;;;;;;;37.40;27.27;;;23.00;99.90;;;;;;5018188;28;20500;-89
2023/09/12 11:37:38;;;;;;;37.95;28.10;;;23.10;99.90;;;;;;5016858;28;20044;-88
2023/09/12 11:40:12;;;;;;;33.45;26.92;;;23.10;99.90;;;;;;5024533;28;20030;-89
2023/09/12 11:42:42;;;;;;;33.80;25.05;;;23.30;99.90;;;;;;5029135;28;20077;-88
2023/09/12 11:45:09;;;;;;;32.53;26.50;;;23.50;99.90;;;;;;5024912;28;20049;-87
2023/09/12 11:47:39;;;;;;;36.72;26.75;;;23.60;99.90;;;;;;5052157;28;20045;-91
2023/09/12 11:50:05;;;;;;;32.78;25.45;;;23.70;99.90;;;;;;5023095;28;20037;-91
2023/09/12 11:52:31;;;;;;;34.35;26.30;;;23.80;99.90;;;;;;5023847;28;20076;-88
2023/09/12 11:54:56;;;;;;;35.00;25.50;;;24.00;99.90;;;;;;4997872;28;20068;-89
2023/09/12 11:57:22;;;;;;;34.10;26.27;;;24.10;99.90;;;;;;4986277;28;20060;-89
2023/09/12 11:59:49;;;;;;;32.88;24.63;;;24.10;99.90;;;;;;5012650;28;20136;-90
2023/09/12 12:02:15;;;;;;;29.83;23.98;;;24.00;99.90;;;;;;5013993;28;20071;-91
2023/09/12 12:04:41;;;;;;;29.05;24.35;;;24.00;99.90;;;;;;5020325;28;20030;-91
2023/09/12 12:07:07;;;;;;;28.10;22.45;;;24.00;99.90;;;;;;5034930;28;20037;-88
2023/09/12 12:09:34;;;;;;;28.27;23.52;;;23.90;99.90;;;;;;5034451;28;20512;-92
2023/09/12 12:12:08;;;;;;;31.35;23.65;;;23.90;99.90;;;;;;5033890;28;20366;-87
2023/09/12 12:14:35;;;;;;;27.42;21.50;;;24.00;99.90;;;;;;5034388;28;20045;-87
2023/09/12 12:17:11;;;;;;;28.75;23.88;;;24.00;99.90;;;;;;5002012;28;20489;-90
2023/09/12 12:19:39;;;;;;;29.40;23.65;;;23.80;99.90;;;;;;4999171;28;20091;-90
2023/09/12 12:22:09;;;;;;;27.90;22.02;;;23.60;99.90;;;;;;4998673;28;20044;-89
2023/09/12 12:24:40;;;;;;;29.05;23.45;;;23.60;99.90;;;;;;5017075;28;20053;-91
2023/09/12 12:27:07;;;;;;;28.38;22.83;;;23.70;99.90;;;;;;5032832;28;20041;-90
2023/09/12 12:29:33;;;;;;;26.52;21.25;;;23.80;99.90;;;;;;5015869;28;20046;-91
2023/09/12 12:32:05;;;;;;;28.25;23.23;;;24.00;99.90;;;;;;4992484;28;20084;-90